Time;durP1;ratioP1;P1;durP2;ratioP2;P2;SDS_P1;SDS_P2;PMS_P1;PMS_P2;Temp;Humidity;BMP_temperature;BMP_pressure;BME280_temperature;BME280_humidity;BME280_pressure;Samples;Min_cycle;Max_cycle;Signal;HPM_P1;HPM_P2
2022/09/06 00:02:31;;;;;;;14.35;2.72;;;;;;;;;;5001856;28;20038;-78
2022/09/06 00:04:57;;;;;;;11.32;2.08;;;;;;;;;;4996748;28;20543;-79
2022/09/06 00:07:23;;;;;;;13.00;2.63;;;;;;;;;;4994790;28;20074;-78
2022/09/06 00:09:49;;;;;;;11.75;2.20;;;;;;;;;;4998411;28;20061;-78
2022/09/06 00:12:15;;;;;;;11.07;2.40;;;;;;;;;;4991098;28;20133;-78
2022/09/06 00:14:41;;;;;;;13.80;2.97;;;;;;;;;;4989475;28;20669;-78
2022/09/06 00:17:07;;;;;;;14.32;2.50;;;;;;;;;;4997444;28;20427;-78
2022/09/06 00:19:33;;;;;;;14.75;2.83;;;;;;;;;;4995338;28;20076;-78
2022/09/06 00:21:59;;;;;;;13.63;2.33;;;;;;;;;;4989818;28;20065;-78
2022/09/06 00:24:25;;;;;;;14.30;2.60;;;;;;;;;;4995407;28;20077;-78
2022/09/06 00:26:51;;;;;;;10.32;2.40;;;;;;;;;;4990522;28;20436;-79
2022/09/06 00:29:17;;;;;;;12.80;2.60;;;;;;;;;;4994541;28;20042;-78
2022/09/06 00:31:43;;;;;;;14.27;2.72;;;;;;;;;;4990484;28;20395;-77
2022/09/06 00:34:09;;;;;;;16.95;2.50;;;;;;;;;;4993686;28;20413;-78
2022/09/06 00:36:35;;;;;;;15.25;2.40;;;;;;;;;;4992402;28;20371;-78
2022/09/06 00:39:01;;;;;;;12.10;2.40;;;;;;;;;;4994126;28;20546;-78
2022/09/06 00:41:27;;;;;;;10.95;2.55;;;;;;;;;;4991264;28;20184;-78
2022/09/06 00:43:54;;;;;;;14.05;2.60;;;;;;;;;;4994912;28;20038;-78
2022/09/06 00:46:23;;;;;;;12.45;2.55;;;;;;;;;;4990889;28;20026;-78
2022/09/06 00:48:51;;;;;;;13.32;2.47;;;;;;;;;;4994789;28;20410;-78
2022/09/06 00:51:18;;;;;;;12.70;2.80;;;;;;;;;;4990575;28;20048;-78
2022/09/06 00:53:44;;;;;;;7.85;1.90;;;;;;;;;;4998071;28;20035;-78
2022/09/06 00:56:10;;;;;;;16.35;1.95;;;;;;;;;;4996518;28;20031;-78
2022/09/06 00:58:36;;;;;;;12.75;2.28;;;;;;;;;;4998298;28;20030;-78
2022/09/06 01:01:03;;;;;;;10.88;3.00;;;;;;;;;;5002296;28;20033;-78
2022/09/06 01:03:30;;;;;;;8.90;1.90;;;;;;;;;;4997730;28;20117;-78
2022/09/06 01:06:11;;;;;;;14.10;2.63;;;;;;;;;;4994298;28;20666;-78
2022/09/06 01:08:57;;;;;;;13.02;2.22;;;;;;;;;;4993428;28;20041;-78
2022/09/06 01:11:23;;;;;;;14.32;2.45;;;;;;;;;;4995163;28;20057;-78
2022/09/06 01:13:52;;;;;;;11.77;2.30;;;;;;;;;;4991769;28;20407;-78
2022/09/06 01:16:18;;;;;;;13.63;2.30;;;;;;;;;;4994511;28;20114;-78
2022/09/06 01:18:55;;;;;;;14.65;2.25;;;;;;;;;;4990817;28;20039;-78
2022/09/06 01:21:35;;;;;;;14.68;2.58;;;;;;;;;;4993183;28;20538;-78
2022/09/06 01:24:03;;;;;;;19.80;3.00;;;;;;;;;;4993174;28;20027;-78
2022/09/06 01:26:35;;;;;;;10.63;2.00;;;;;;;;;;4997625;28;20030;-78
2022/09/06 01:29:00;;;;;;;;;;;;;;;;;;4996705;28;20037;-78
2022/09/06 01:31:26;;;;;;;14.60;2.03;;;;;;;;;;4996360;28;19918;-78
2022/09/06 01:33:55;;;;;;;12.32;2.45;;;;;;;;;;4994951;28;20049;-78
2022/09/06 01:36:26;;;;;;;13.63;2.88;;;;;;;;;;4996398;28;20030;-79
2022/09/06 01:38:52;;;;;;;11.65;2.13;;;;;;;;;;4992023;28;20038;-78
2022/09/06 01:41:19;;;;;;;15.85;2.78;;;;;;;;;;4998749;28;20091;-78
2022/09/06 01:43:46;;;;;;;13.10;2.35;;;;;;;;;;4995785;28;20042;-78
2022/09/06 01:46:16;;;;;;;11.40;2.05;;;;;;;;;;4993343;28;20061;-78
2022/09/06 01:48:48;;;;;;;13.30;2.60;;;;;;;;;;4997834;28;20046;-78
2022/09/06 01:51:15;;;;;;;13.02;2.80;;;;;;;;;;4997374;28;20030;-78
2022/09/06 01:53:59;;;;;;;13.10;2.85;;;;;;;;;;4995644;28;20038;-78
2022/09/06 01:56:28;;;;;;;10.70;2.25;;;;;;;;;;4991962;28;20030;-78
2022/09/06 01:59:09;;;;;;;14.65;2.65;;;;;;;;;;4971625;28;20042;-78
2022/09/06 02:01:55;;;;;;;12.93;2.77;;;;;;;;;;4999582;28;20121;-78
2022/09/06 02:04:43;;;;;;;9.50;2.15;;;;;;;;;;4955047;28;20085;-78
2022/09/06 02:07:29;;;;;;;11.90;2.53;;;;;;;;;;5001347;28;20115;-78
2022/09/06 02:10:01;;;;;;;11.30;2.08;;;;;;;;;;5000882;28;20025;-78
2022/09/06 02:12:29;;;;;;;13.48;2.20;;;;;;;;;;4999613;28;20038;-78
2022/09/06 02:14:57;;;;;;;11.48;2.40;;;;;;;;;;4998421;28;20479;-78
2022/09/06 02:17:26;;;;;;;12.15;2.67;;;;;;;;;;4992885;28;20038;-78
2022/09/06 02:19:59;;;;;;;11.57;2.30;;;;;;;;;;4997378;28;20026;-78
2022/09/06 02:22:27;;;;;;;16.02;2.38;;;;;;;;;;4980395;28;20081;-78
2022/09/06 02:24:55;;;;;;;13.10;3.08;;;;;;;;;;4995825;28;20041;-78
2022/09/06 02:27:21;;;;;;;13.20;2.78;;;;;;;;;;4994231;28;20084;-78
2022/09/06 02:29:47;;;;;;;16.30;2.65;;;;;;;;;;4993618;28;20034;-78
2022/09/06 02:32:17;;;;;;;12.02;3.28;;;;;;;;;;4995465;28;20361;-78
2022/09/06 02:34:45;;;;;;;12.35;3.33;;;;;;;;;;5000406;28;20033;-78
2022/09/06 02:37:11;;;;;;;12.70;2.38;;;;;;;;;;4996083;28;20446;-78
2022/09/06 02:39:37;;;;;;;14.50;2.55;;;;;;;;;;4995070;28;20377;-78
2022/09/06 02:42:04;;;;;;;14.57;3.08;;;;;;;;;;4995324;28;20545;-78
2022/09/06 02:44:31;;;;;;;10.68;2.33;;;;;;;;;;4995988;28;20038;-78
2022/09/06 02:46:57;;;;;;;13.82;2.55;;;;;;;;;;4990800;28;20049;-78
2022/09/06 02:49:23;;;;;;;15.32;2.90;;;;;;;;;;4992653;28;20109;-78
2022/09/06 02:51:49;;;;;;;11.23;2.17;;;;;;;;;;4995423;28;20108;-78
2022/09/06 02:54:15;;;;;;;14.00;2.80;;;;;;;;;;4996261;28;20036;-78
2022/09/06 02:56:42;;;;;;;16.05;2.95;;;;;;;;;;4993474;28;20446;-78
2022/09/06 02:59:08;;;;;;;17.83;3.45;;;;;;;;;;4997748;28;20038;-78
2022/09/06 03:01:34;;;;;;;8.52;2.00;;;;;;;;;;4996202;28;20037;-78
2022/09/06 03:04:00;;;;;;;12.25;2.45;;;;;;;;;;4995412;28;20562;-78
2022/09/06 03:06:26;;;;;;;13.82;2.65;;;;;;;;;;4996518;28;20057;-78
2022/09/06 03:08:54;;;;;;;16.58;2.83;;;;;;;;;;4995632;28;20050;-78
2022/09/06 03:11:20;;;;;;;9.57;2.00;;;;;;;;;;4995928;28;20038;-78
2022/09/06 03:13:46;;;;;;;14.52;2.47;;;;;;;;;;4994839;28;20038;-78
2022/09/06 03:16:12;;;;;;;10.23;2.58;;;;;;;;;;4999505;28;20104;-78
2022/09/06 03:18:38;;;;;;;14.25;3.15;;;;;;;;;;4992604;28;20073;-78
2022/09/06 03:21:04;;;;;;;14.55;3.00;;;;;;;;;;4995709;28;20111;-78
2022/09/06 03:23:30;;;;;;;11.35;2.85;;;;;;;;;;4990893;28;20030;-78
2022/09/06 03:25:56;;;;;;;16.73;3.30;;;;;;;;;;4994377;28;20030;-78
2022/09/06 03:28:22;;;;;;;10.63;3.10;;;;;;;;;;4993580;28;20037;-78
2022/09/06 03:30:50;;;;;;;14.25;2.25;;;;;;;;;;4997643;28;20044;-78
2022/09/06 03:33:16;;;;;;;14.73;3.55;;;;;;;;;;4993554;28;20438;-78
2022/09/06 03:35:52;;;;;;;12.55;2.67;;;;;;;;;;4994546;28;20423;-78
2022/09/06 03:38:18;;;;;;;15.57;2.63;;;;;;;;;;4991748;28;20034;-79
2022/09/06 03:40:45;;;;;;;16.05;2.70;;;;;;;;;;4993136;28;20057;-78
2022/09/06 03:43:11;;;;;;;15.27;2.58;;;;;;;;;;4994173;28;20034;-78
2022/09/06 03:45:37;;;;;;;11.88;2.58;;;;;;;;;;5000730;28;20034;-79
2022/09/06 03:48:03;;;;;;;11.48;2.53;;;;;;;;;;4998154;28;20127;-79
2022/09/06 03:50:29;;;;;;;12.32;2.60;;;;;;;;;;4992863;28;20038;-78
2022/09/06 03:52:55;;;;;;;14.90;3.05;;;;;;;;;;4993564;28;20038;-78
2022/09/06 03:55:21;;;;;;;20.48;2.20;;;;;;;;;;4997971;28;20026;-78
2022/09/06 03:57:47;;;;;;;13.90;2.70;;;;;;;;;;4990678;28;20536;-79
2022/09/06 04:00:13;;;;;;;11.65;2.17;;;;;;;;;;4994520;28;20069;-78
2022/09/06 04:02:39;;;;;;;19.65;2.90;;;;;;;;;;4993507;28;20042;-78
2022/09/06 04:05:05;;;;;;;13.07;2.60;;;;;;;;;;4996533;28;20041;-78
2022/09/06 04:07:31;;;;;;;16.15;3.03;;;;;;;;;;4994025;28;20129;-78
2022/09/06 04:09:57;;;;;;;15.43;2.78;;;;;;;;;;4990910;28;20117;-79
2022/09/06 04:12:23;;;;;;;14.98;2.65;;;;;;;;;;4997728;28;20045;-78
2022/09/06 04:14:49;;;;;;;14.32;2.58;;;;;;;;;;4997804;28;20029;-78
2022/09/06 04:17:15;;;;;;;12.65;2.45;;;;;;;;;;4995929;28;20037;-78
2022/09/06 04:19:41;;;;;;;14.88;2.78;;;;;;;;;;4991907;28;20030;-78
2022/09/06 04:22:07;;;;;;;9.50;2.65;;;;;;;;;;4994956;28;20530;-78
2022/09/06 04:24:33;;;;;;;13.27;3.20;;;;;;;;;;4992868;28;20034;-78
2022/09/06 04:26:59;;;;;;;13.35;2.40;;;;;;;;;;5000331;28;20535;-79
2022/09/06 04:29:25;;;;;;;14.02;3.08;;;;;;;;;;4994295;28;20496;-79
2022/09/06 04:31:51;;;;;;;14.38;2.95;;;;;;;;;;4999294;28;20037;-79
2022/09/06 04:34:18;;;;;;;9.75;2.17;;;;;;;;;;4999855;28;20571;-79
2022/09/06 04:36:44;;;;;;;16.40;2.97;;;;;;;;;;4994252;28;20061;-78
2022/09/06 04:39:10;;;;;;;19.08;2.80;;;;;;;;;;4993493;28;20064;-78
2022/09/06 04:41:36;;;;;;;12.45;3.35;;;;;;;;;;4999200;28;20112;-79
2022/09/06 04:44:02;;;;;;;15.88;2.78;;;;;;;;;;4995135;28;20030;-79
2022/09/06 04:46:29;;;;;;;13.80;2.72;;;;;;;;;;4995186;28;20029;-79
2022/09/06 04:48:55;;;;;;;13.60;2.35;;;;;;;;;;4993766;28;20057;-79
2022/09/06 04:51:23;;;;;;;12.73;2.97;;;;;;;;;;4992340;28;20038;-79
2022/09/06 04:53:49;;;;;;;10.20;2.42;;;;;;;;;;4991894;28;20061;-79
2022/09/06 04:56:19;;;;;;;17.50;2.67;;;;;;;;;;4990783;28;20034;-78
2022/09/06 04:58:46;;;;;;;12.27;2.50;;;;;;;;;;4995159;28;20070;-78
2022/09/06 05:01:12;;;;;;;15.50;3.03;;;;;;;;;;4997341;28;20068;-78
2022/09/06 05:03:38;;;;;;;16.20;2.40;;;;;;;;;;5007847;28;20506;-78
2022/09/06 05:06:08;;;;;;;13.60;2.65;;;;;;;;;;5006226;28;20054;-78
2022/09/06 05:08:41;;;;;;;17.38;2.90;;;;;;;;;;5005801;28;20038;-78
2022/09/06 05:11:07;;;;;;;13.35;3.00;;;;;;;;;;5011283;28;20058;-78
2022/09/06 05:13:34;;;;;;;12.65;2.90;;;;;;;;;;5012351;28;20026;-77
2022/09/06 05:16:01;;;;;;;15.98;3.58;;;;;;;;;;5006645;28;20038;-78
2022/09/06 05:18:27;;;;;;;11.95;3.13;;;;;;;;;;5006182;28;20049;-78
2022/09/06 05:20:54;;;;;;;16.55;3.15;;;;;;;;;;5004750;28;20735;-79
2022/09/06 05:23:20;;;;;;;22.00;3.53;;;;;;;;;;5010410;28;20038;-79
2022/09/06 05:25:46;;;;;;;16.35;3.63;;;;;;;;;;5006557;28;20613;-78
2022/09/06 05:28:12;;;;;;;17.25;3.20;;;;;;;;;;5007598;28;20065;-78
2022/09/06 05:30:40;;;;;;;12.25;3.10;;;;;;;;;;5003861;28;20045;-78
2022/09/06 05:33:06;;;;;;;12.20;3.20;;;;;;;;;;5011883;28;20033;-78
2022/09/06 05:35:32;;;;;;;13.38;3.60;;;;;;;;;;5008200;28;20467;-79
2022/09/06 05:37:58;;;;;;;20.67;3.30;;;;;;;;;;5008407;28;20040;-79
2022/09/06 05:40:24;;;;;;;13.80;3.15;;;;;;;;;;5011363;28;20030;-79
2022/09/06 05:42:50;;;;;;;12.02;3.00;;;;;;;;;;5010308;28;20483;-79
2022/09/06 05:45:16;;;;;;;12.07;2.80;;;;;;;;;;4992625;28;20076;-79
2022/09/06 05:47:42;;;;;;;18.80;3.22;;;;;;;;;;5009954;28;20064;-80
2022/09/06 05:50:08;;;;;;;11.85;3.45;;;;;;;;;;5006617;28;20046;-80
2022/09/06 05:52:35;;;;;;;18.48;3.30;;;;;;;;;;5002443;28;20073;-80
2022/09/06 05:55:01;;;;;;;15.10;3.15;;;;;;;;;;5005483;28;20026;-80
2022/09/06 05:57:27;;;;;;;18.40;3.33;;;;;;;;;;5006825;28;20238;-80
2022/09/06 05:59:53;;;;;;;16.95;3.05;;;;;;;;;;5011502;28;20034;-80
2022/09/06 06:02:20;;;;;;;14.23;2.85;;;;;;;;;;5005728;28;20038;-80
2022/09/06 06:04:46;;;;;;;14.07;3.20;;;;;;;;;;5011548;28;20477;-80
2022/09/06 06:07:12;;;;;;;16.02;2.65;;;;;;;;;;4991677;28;20050;-79
2022/09/06 06:09:38;;;;;;;19.88;3.67;;;;;;;;;;4990166;28;20050;-80
2022/09/06 06:12:04;;;;;;;14.20;3.60;;;;;;;;;;4980595;28;20436;-79
2022/09/06 06:14:30;;;;;;;20.17;4.45;;;;;;;;;;4988481;28;20562;-80
2022/09/06 06:16:56;;;;;;;22.55;2.70;;;;;;;;;;4986943;28;20045;-79
2022/09/06 06:19:22;;;;;;;18.00;2.90;;;;;;;;;;4987072;28;20068;-80
2022/09/06 06:21:48;;;;;;;17.30;2.90;;;;;;;;;;4991701;28;20117;-80
2022/09/06 06:24:14;;;;;;;21.25;4.10;;;;;;;;;;4989396;28;20073;-80
2022/09/06 06:26:40;;;;;;;17.20;3.05;;;;;;;;;;4997492;28;20086;-80
2022/09/06 06:29:08;;;;;;;17.13;3.50;;;;;;;;;;4984662;28;20539;-80
2022/09/06 06:31:35;;;;;;;14.23;3.33;;;;;;;;;;4981889;28;20066;-80
2022/09/06 06:34:02;;;;;;;10.07;2.13;;;;;;;;;;4988111;28;20026;-80
2022/09/06 06:36:32;;;;;;;12.30;2.03;;;;;;;;;;4989945;28;20061;-80
2022/09/06 06:38:59;;;;;;;15.85;2.15;;;;;;;;;;4988038;28;20038;-80
2022/09/06 06:41:26;;;;;;;15.35;2.67;;;;;;;;;;4990972;28;20094;-80
2022/09/06 06:43:53;;;;;;;10.35;2.17;;;;;;;;;;4984709;28;20375;-80
2022/09/06 06:46:19;;;;;;;21.38;3.33;;;;;;;;;;4989948;28;20056;-80
2022/09/06 06:48:45;;;;;;;18.45;2.97;;;;;;;;;;4986769;28;20037;-80
2022/09/06 06:51:13;;;;;;;17.70;3.25;;;;;;;;;;4991847;28;20077;-80
2022/09/06 06:53:39;;;;;;;15.02;3.00;;;;;;;;;;4989978;28;20116;-79
2022/09/06 06:56:18;;;;;;;17.48;3.42;;;;;;;;;;4990523;28;20034;-79
2022/09/06 06:58:45;;;;;;;15.77;3.20;;;;;;;;;;4979793;28;20362;-80
2022/09/06 07:01:12;;;;;;;21.95;3.60;;;;;;;;;;4984492;28;20030;-79
2022/09/06 07:03:38;;;;;;;16.65;2.53;;;;;;;;;;4980656;28;20031;-79
2022/09/06 07:06:05;;;;;;;17.77;3.67;;;;;;;;;;4989861;28;20054;-79
2022/09/06 07:08:32;;;;;;;11.80;2.58;;;;;;;;;;4991329;28;20077;-79
2022/09/06 07:10:58;;;;;;;12.07;3.00;;;;;;;;;;4989707;28;20059;-80
2022/09/06 07:13:24;;;;;;;14.10;3.10;;;;;;;;;;4990295;28;20379;-80
2022/09/06 07:15:50;;;;;;;13.40;3.42;;;;;;;;;;4984366;28;20034;-80
2022/09/06 07:18:16;;;;;;;15.73;3.40;;;;;;;;;;4990317;28;20037;-80
2022/09/06 07:20:42;;;;;;;13.88;2.90;;;;;;;;;;4986837;28;20381;-79
2022/09/06 07:23:09;;;;;;;14.02;2.78;;;;;;;;;;4990349;28;20034;-80
2022/09/06 07:25:35;;;;;;;15.93;2.47;;;;;;;;;;4990899;28;20058;-80
2022/09/06 07:28:05;;;;;;;17.30;3.47;;;;;;;;;;4981292;28;20034;-80
2022/09/06 07:30:32;;;;;;;14.18;3.08;;;;;;;;;;4997832;28;20033;-80
2022/09/06 07:32:58;;;;;;;13.10;2.53;;;;;;;;;;4982839;28;20043;-80
2022/09/06 07:35:25;;;;;;;16.92;2.85;;;;;;;;;;4988752;28;20034;-80
2022/09/06 07:37:55;;;;;;;15.85;2.92;;;;;;;;;;4984080;28;20411;-80
2022/09/06 07:40:21;;;;;;;14.73;2.40;;;;;;;;;;4983232;28;20455;-80
2022/09/06 07:42:47;;;;;;;14.20;2.33;;;;;;;;;;4989327;28;20553;-80
2022/09/06 07:45:13;;;;;;;14.43;2.92;;;;;;;;;;4988928;28;20041;-80
2022/09/06 07:47:39;;;;;;;13.98;2.80;;;;;;;;;;4981336;28;20445;-80
2022/09/06 07:50:05;;;;;;;14.95;3.17;;;;;;;;;;4991347;28;20543;-79
2022/09/06 07:52:31;;;;;;;13.05;2.65;;;;;;;;;;4985458;28;20030;-79
2022/09/06 07:54:57;;;;;;;17.40;3.47;;;;;;;;;;4989318;28;22084;-80
2022/09/06 07:57:23;;;;;;;19.00;2.78;;;;;;;;;;4988810;28;20046;-80
2022/09/06 07:59:50;;;;;;;13.73;2.83;;;;;;;;;;4986237;28;20037;-80
2022/09/06 08:02:16;;;;;;;14.80;3.88;;;;;;;;;;4983280;28;20113;-80
2022/09/06 08:04:43;;;;;;;18.35;3.20;;;;;;;;;;4976106;28;20038;-80
2022/09/06 08:07:09;;;;;;;20.20;3.03;;;;;;;;;;4982498;28;20063;-80
2022/09/06 08:09:35;;;;;;;19.45;3.70;;;;;;;;;;4989865;28;20038;-80
2022/09/06 08:12:07;;;;;;;15.13;3.67;;;;;;;;;;4986144;28;20038;-79
2022/09/06 08:14:34;;;;;;;22.02;3.85;;;;;;;;;;4978564;28;20031;-79
2022/09/06 08:17:00;;;;;;;19.73;3.78;;;;;;;;;;4988783;28;20058;-78
2022/09/06 08:19:26;;;;;;;17.15;3.53;;;;;;;;;;4989700;28;20070;-79
2022/09/06 08:21:55;;;;;;;15.40;3.30;;;;;;;;;;4984526;28;20042;-79
2022/09/06 08:24:22;;;;;;;22.25;4.07;;;;;;;;;;4992517;28;20165;-79
2022/09/06 08:26:48;;;;;;;16.45;3.75;;;;;;;;;;4983808;28;20423;-79
2022/09/06 08:29:14;;;;;;;22.30;3.83;;;;;;;;;;4987092;28;20030;-79
2022/09/06 08:31:41;;;;;;;18.88;3.90;;;;;;;;;;4981373;28;20041;-80
2022/09/06 08:34:08;;;;;;;18.60;3.50;;;;;;;;;;4979729;28;20064;-80
2022/09/06 08:36:34;;;;;;;19.05;4.32;;;;;;;;;;4982543;28;20511;-79
2022/09/06 08:39:04;;;;;;;18.40;4.72;;;;;;;;;;4982534;28;20046;-79
2022/09/06 08:41:37;;;;;;;19.05;3.63;;;;;;;;;;4984987;28;20082;-79
2022/09/06 08:44:05;;;;;;;13.90;3.28;;;;;;;;;;4979721;28;20230;-79
2022/09/06 08:46:53;;;;;;;12.05;3.35;;;;;;;;;;4984346;28;20063;-80
2022/09/06 08:49:19;;;;;;;23.25;5.22;;;;;;;;;;4986098;28;20034;-79
2022/09/06 08:51:49;;;;;;;18.63;5.60;;;;;;;;;;4989538;28;20030;-79
2022/09/06 08:54:14;;;;;;;12.57;4.10;;;;;;;;;;4977654;28;20041;-80
2022/09/06 08:56:46;;;;;;;20.33;4.40;;;;;;;;;;4998576;28;20038;-80
2022/09/06 08:59:13;;;;;;;14.80;4.38;;;;;;;;;;4985262;28;20038;-80
2022/09/06 09:01:59;;;;;;;16.77;4.20;;;;;;;;;;4987765;28;20062;-80
2022/09/06 09:04:27;;;;;;;18.33;4.10;;;;;;;;;;4988742;28;20080;-80
2022/09/06 09:06:54;;;;;;;15.27;3.88;;;;;;;;;;4999671;28;20506;-79
2022/09/06 09:09:20;;;;;;;14.60;3.08;;;;;;;;;;5007900;28;20030;-79
2022/09/06 09:11:49;;;;;;;16.63;3.03;;;;;;;;;;5008345;28;20080;-79
2022/09/06 09:14:16;;;;;;;18.00;3.80;;;;;;;;;;5006146;28;20026;-79
2022/09/06 09:16:42;;;;;;;15.15;2.90;;;;;;;;;;5010154;28;20117;-79
2022/09/06 09:19:08;;;;;;;10.80;2.83;;;;;;;;;;5010715;28;20053;-79
2022/09/06 09:21:39;;;;;;;16.33;2.70;;;;;;;;;;5007135;28;20030;-79
2022/09/06 09:24:06;;;;;;;15.77;3.10;;;;;;;;;;5008600;28;20038;-79
2022/09/06 09:26:52;;;;;;;15.20;3.00;;;;;;;;;;5007188;28;20033;-79
2022/09/06 09:29:19;;;;;;;12.57;2.33;;;;;;;;;;5006666;28;20053;-79
2022/09/06 09:31:48;;;;;;;13.73;3.10;;;;;;;;;;5009832;28;20049;-79
2022/09/06 09:34:28;;;;;;;14.05;2.63;;;;;;;;;;5004265;28;20034;-79
2022/09/06 09:37:17;;;;;;;11.75;2.58;;;;;;;;;;5013208;28;20060;-80
2022/09/06 09:39:43;;;;;;;17.33;2.75;;;;;;;;;;5007245;28;20038;-79
2022/09/06 09:42:09;;;;;;;14.30;2.60;;;;;;;;;;5007962;28;20036;-79
2022/09/06 09:44:36;;;;;;;12.45;2.95;;;;;;;;;;5007239;28;20101;-80
2022/09/06 09:47:09;;;;;;;11.77;2.35;;;;;;;;;;5013452;28;20044;-80
2022/09/06 09:49:35;;;;;;;13.77;2.72;;;;;;;;;;5000964;28;20068;-79
2022/09/06 09:52:06;;;;;;;12.05;2.75;;;;;;;;;;5004715;28;20423;-79
2022/09/06 09:54:35;;;;;;;12.30;2.42;;;;;;;;;;5010717;28;20029;-80
2022/09/06 09:57:01;;;;;;;10.40;2.20;;;;;;;;;;5005829;28;20031;-80
2022/09/06 09:59:29;;;;;;;19.13;3.13;;;;;;;;;;5008646;28;20037;-80
2022/09/06 10:01:58;;;;;;;16.17;2.70;;;;;;;;;;5010439;28;20034;-80
2022/09/06 10:04:29;;;;;;;15.02;2.33;;;;;;;;;;5003406;28;20702;-80
2022/09/06 10:07:10;;;;;;;15.73;2.40;;;;;;;;;;5008533;28;20061;-80
2022/09/06 10:09:38;;;;;;;12.98;2.67;;;;;;;;;;5010005;28;20509;-80
2022/09/06 10:12:04;;;;;;;14.35;2.70;;;;;;;;;;5008937;28;20034;-79
2022/09/06 10:14:32;;;;;;;13.05;2.38;;;;;;;;;;4999526;28;20030;-79
2022/09/06 10:16:59;;;;;;;12.50;2.08;;;;;;;;;;5008647;28;20034;-80
2022/09/06 10:19:41;;;;;;;17.05;2.45;;;;;;;;;;5010867;28;20036;-80
2022/09/06 10:22:12;;;;;;;15.23;2.72;;;;;;;;;;5008414;28;20049;-79
2022/09/06 10:24:47;;;;;;;14.25;3.03;;;;;;;;;;4999846;28;20526;-79
2022/09/06 10:27:13;;;;;;;11.57;2.15;;;;;;;;;;5015162;28;20072;-79
2022/09/06 10:29:51;;;;;;;14.73;2.40;;;;;;;;;;5007864;28;20371;-80
2022/09/06 10:32:36;;;;;;;8.80;1.83;;;;;;;;;;4997521;28;20490;-79
2022/09/06 10:35:04;;;;;;;17.88;2.95;;;;;;;;;;5004705;28;20030;-80
2022/09/06 10:37:48;;;;;;;13.00;2.05;;;;;;;;;;5003793;28;20018;-80
2022/09/06 10:40:21;;;;;;;14.02;2.88;;;;;;;;;;5006554;28;20034;-80
2022/09/06 10:42:52;;;;;;;11.25;2.22;;;;;;;;;;5005613;28;20470;-80
2022/09/06 10:45:28;;;;;;;14.98;2.47;;;;;;;;;;5006819;28;20080;-80
2022/09/06 10:47:58;;;;;;;13.60;2.28;;;;;;;;;;5006280;28;20038;-80
2022/09/06 10:50:33;;;;;;;11.35;2.05;;;;;;;;;;5010072;28;20068;-80
2022/09/06 10:53:04;;;;;;;11.00;2.17;;;;;;;;;;5010463;28;20515;-80
2022/09/06 10:55:31;;;;;;;11.13;1.33;;;;;;;;;;5010568;28;20083;-80
2022/09/06 10:58:03;;;;;;;14.75;2.15;;;;;;;;;;5013297;28;20037;-80
2022/09/06 11:00:31;;;;;;;11.88;2.63;;;;;;;;;;5005317;28;20026;-80
2022/09/06 11:03:00;;;;;;;14.50;3.10;;;;;;;;;;5009480;28;20045;-80
2022/09/06 11:05:29;;;;;;;16.40;2.83;;;;;;;;;;5004350;28;20034;-80
2022/09/06 11:08:09;;;;;;;10.82;2.70;;;;;;;;;;5000736;28;20053;-79
2022/09/06 11:10:39;;;;;;;12.60;2.78;;;;;;;;;;5004791;28;20034;-80
2022/09/06 11:13:10;;;;;;;11.60;2.40;;;;;;;;;;5008326;28;20026;-80
2022/09/06 11:15:54;;;;;;;9.48;2.42;;;;;;;;;;5010813;28;20034;-80
2022/09/06 11:18:20;;;;;;;18.42;2.95;;;;;;;;;;5006617;28;20034;-80
2022/09/06 11:20:51;;;;;;;13.32;2.70;;;;;;;;;;5009401;28;20038;-80
2022/09/06 11:23:17;;;;;;;9.80;2.28;;;;;;;;;;5005509;28;20038;-80
2022/09/06 11:25:46;;;;;;;12.48;2.10;;;;;;;;;;5007050;28;20084;-79
2022/09/06 11:28:17;;;;;;;14.02;2.60;;;;;;;;;;5003085;28;20038;-80
2022/09/06 11:30:45;;;;;;;11.82;2.47;;;;;;;;;;5006883;28;20041;-80
2022/09/06 11:33:23;;;;;;;12.48;2.03;;;;;;;;;;5007196;28;20068;-80
2022/09/06 11:35:49;;;;;;;13.98;2.55;;;;;;;;;;5010356;28;20030;-80
2022/09/06 11:38:15;;;;;;;11.63;2.22;;;;;;;;;;5007364;28;20438;-80
2022/09/06 11:40:46;;;;;;;12.15;2.17;;;;;;;;;;5008087;28;20030;-80
2022/09/06 11:43:32;;;;;;;12.80;1.90;;;;;;;;;;5009839;28;20037;-81
2022/09/06 11:45:58;;;;;;;10.43;1.67;;;;;;;;;;4996226;28;20084;-80
2022/09/06 11:48:25;;;;;;;16.95;2.30;;;;;;;;;;5005658;28;20049;-80
2022/09/06 11:50:54;;;;;;;8.93;1.70;;;;;;;;;;5008126;28;20064;-80
2022/09/06 11:53:28;;;;;;;8.00;1.80;;;;;;;;;;5009289;28;20038;-80
2022/09/06 11:55:59;;;;;;;10.40;2.05;;;;;;;;;;5011371;28;20467;-80
2022/09/06 11:58:34;;;;;;;9.88;2.15;;;;;;;;;;4999528;28;20041;-80
2022/09/06 12:01:15;;;;;;;10.38;2.13;;;;;;;;;;5001052;28;20054;-80
2022/09/06 12:03:51;;;;;;;12.98;2.65;;;;;;;;;;4999221;28;20426;-80
2022/09/06 12:06:20;;;;;;;13.07;2.70;;;;;;;;;;5003161;28;20464;-80
2022/09/06 12:08:53;;;;;;;13.90;2.17;;;;;;;;;;5002645;28;20118;-80
2022/09/06 12:11:38;;;;;;;15.18;1.90;;;;;;;;;;5004913;28;20038;-80
2022/09/06 12:14:06;;;;;;;14.93;2.28;;;;;;;;;;4991805;28;20081;-80
2022/09/06 12:16:50;;;;;;;13.00;2.30;;;;;;;;;;5007630;28;20030;-80
2022/09/06 12:19:35;;;;;;;15.38;2.97;;;;;;;;;;5000531;28;20084;-80
2022/09/06 12:22:01;;;;;;;12.43;2.20;;;;;;;;;;5007527;28;20041;-80
2022/09/06 12:24:33;;;;;;;11.63;2.55;;;;;;;;;;5005989;28;20034;-81
2022/09/06 12:27:19;;;;;;;13.10;1.88;;;;;;;;;;5010317;28;20042;-80
2022/09/06 12:29:50;;;;;;;11.93;2.20;;;;;;;;;;5006946;28;20038;-80
2022/09/06 12:32:19;;;;;;;6.80;2.03;;;;;;;;;;5009065;28;20479;-80
2022/09/06 12:34:45;;;;;;;12.07;1.58;;;;;;;;;;5002279;28;20037;-80
2022/09/06 12:37:12;;;;;;;10.98;1.90;;;;;;;;;;5007256;28;20383;-79
2022/09/06 12:39:38;;;;;;;10.73;2.35;;;;;;;;;;5006119;28;20057;-80
2022/09/06 12:42:10;;;;;;;10.00;1.50;;;;;;;;;;5007141;28;20059;-80
2022/09/06 12:44:36;;;;;;;14.80;1.83;;;;;;;;;;4994473;28;20066;-80
2022/09/06 12:47:09;;;;;;;10.45;1.75;;;;;;;;;;5004417;28;20460;-80
2022/09/06 12:49:35;;;;;;;13.45;2.30;;;;;;;;;;5000523;28;20558;-80
2022/09/06 12:52:09;;;;;;;11.32;1.80;;;;;;;;;;5009079;28;20053;-80
2022/09/06 12:54:41;;;;;;;7.97;2.00;;;;;;;;;;5008418;28;20022;-80
2022/09/06 12:57:12;;;;;;;11.05;2.17;;;;;;;;;;5012005;28;20061;-80
2022/09/06 12:59:38;;;;;;;12.07;2.28;;;;;;;;;;5011511;28;20471;-80
2022/09/06 13:02:11;;;;;;;11.85;2.35;;;;;;;;;;5007866;28;20539;-81
2022/09/06 13:04:40;;;;;;;11.80;1.70;;;;;;;;;;5005666;28;20029;-80
2022/09/06 13:07:08;;;;;;;14.20;2.28;;;;;;;;;;5005201;28;20062;-80
2022/09/06 13:09:35;;;;;;;12.10;2.13;;;;;;;;;;5009292;28;20423;-80
2022/09/06 13:12:07;;;;;;;10.68;1.58;;;;;;;;;;5004111;28;20041;-80
2022/09/06 13:14:34;;;;;;;13.38;2.15;;;;;;;;;;4997613;28;20055;-80
2022/09/06 13:17:00;;;;;;;17.27;2.30;;;;;;;;;;5003448;28;20375;-80
2022/09/06 13:19:31;;;;;;;9.38;1.70;;;;;;;;;;4995832;28;20019;-81
2022/09/06 13:21:57;;;;;;;13.75;1.95;;;;;;;;;;5004161;28;20061;-80
2022/09/06 13:24:24;;;;;;;15.30;2.15;;;;;;;;;;5007118;28;20041;-80
2022/09/06 13:26:52;;;;;;;9.88;1.90;;;;;;;;;;5000695;28;20541;-80
2022/09/06 13:29:18;;;;;;;13.00;1.90;;;;;;;;;;5005839;28;20068;-81
2022/09/06 13:31:48;;;;;;;11.90;1.75;;;;;;;;;;5015016;28;20084;-80
2022/09/06 13:34:25;;;;;;;22.88;2.53;;;;;;;;;;5001811;28;20093;-80
2022/09/06 13:36:52;;;;;;;11.05;2.25;;;;;;;;;;5004176;28;20062;-80
2022/09/06 13:39:30;;;;;;;12.38;2.05;;;;;;;;;;5007909;28;20073;-80
2022/09/06 13:42:00;;;;;;;13.80;1.70;;;;;;;;;;5012742;28;20483;-80
2022/09/06 13:44:30;;;;;;;11.90;2.20;;;;;;;;;;5003205;28;20380;-80
2022/09/06 13:46:57;;;;;;;10.40;2.35;;;;;;;;;;5009172;28;20125;-80
2022/09/06 13:49:23;;;;;;;14.45;2.25;;;;;;;;;;5004120;28;20647;-80
2022/09/06 13:51:49;;;;;;;12.00;2.17;;;;;;;;;;4993967;28;20042;-80
2022/09/06 13:54:16;;;;;;;15.95;1.92;;;;;;;;;;5010146;28;20052;-80
2022/09/06 13:56:47;;;;;;;17.65;2.67;;;;;;;;;;5012448;28;20034;-80
2022/09/06 13:59:13;;;;;;;13.05;2.08;;;;;;;;;;5009511;28;20411;-80
2022/09/06 14:01:40;;;;;;;11.25;2.10;;;;;;;;;;5011419;28;20092;-80
2022/09/06 14:04:06;;;;;;;16.25;1.95;;;;;;;;;;5007197;28;20096;-80
2022/09/06 14:06:34;;;;;;;14.60;2.33;;;;;;;;;;5010065;28;20042;-80
2022/09/06 14:09:01;;;;;;;11.18;2.30;;;;;;;;;;5011327;28;20030;-80
2022/09/06 14:11:27;;;;;;;10.57;1.90;;;;;;;;;;5010031;28;20038;-80
2022/09/06 14:13:53;;;;;;;20.75;2.75;;;;;;;;;;5007044;28;20108;-80
2022/09/06 14:16:19;;;;;;;9.95;1.75;;;;;;;;;;5010862;28;20136;-80
2022/09/06 14:18:45;;;;;;;11.52;2.10;;;;;;;;;;5005813;28;20478;-80
2022/09/06 14:21:11;;;;;;;10.88;1.90;;;;;;;;;;5007622;28;20041;-80
2022/09/06 14:23:37;;;;;;;10.45;1.83;;;;;;;;;;5007426;28;20042;-80
2022/09/06 14:26:03;;;;;;;15.30;1.90;;;;;;;;;;5008309;28;20391;-80
2022/09/06 14:28:30;;;;;;;10.55;1.92;;;;;;;;;;5011912;28;20034;-80
2022/09/06 14:30:56;;;;;;;13.30;2.05;;;;;;;;;;5010105;28;20726;-80
2022/09/06 14:33:22;;;;;;;14.23;2.08;;;;;;;;;;5005075;28;20034;-80
2022/09/06 14:35:48;;;;;;;12.00;2.15;;;;;;;;;;5004350;28;20060;-81
2022/09/06 14:38:15;;;;;;;9.70;1.42;;;;;;;;;;5009260;28;20038;-80
2022/09/06 14:40:43;;;;;;;14.57;1.92;;;;;;;;;;5008111;28;20501;-80